sensor_id;sensor_type;location;lat;lon;timestamp;P1;durP1;ratioP1;P2;durP2;ratioP2
16407;SDS011;8313;49.894;8.084;2024-02-15T00:00:44;6.00;;;4.40;;
16407;SDS011;8313;49.894;8.084;2024-02-15T00:03:10;7.83;;;4.90;;
16407;SDS011;8313;49.894;8.084;2024-02-15T00:05:38;6.20;;;4.37;;
16407;SDS011;8313;49.894;8.084;2024-02-15T00:08:04;7.43;;;4.93;;
16407;SDS011;8313;49.894;8.084;2024-02-15T00:10:31;9.63;;;5.17;;
16407;SDS011;8313;49.894;8.084;2024-02-15T00:12:57;6.53;;;5.13;;
16407;SDS011;8313;49.894;8.084;2024-02-15T00:15:23;7.30;;;5.30;;
16407;SDS011;8313;49.894;8.084;2024-02-15T00:17:49;7.67;;;4.90;;
16407;SDS011;8313;49.894;8.084;2024-02-15T00:20:14;5.83;;;5.07;;
16407;SDS011;8313;49.894;8.084;2024-02-15T00:22:42;6.20;;;5.13;;
16407;SDS011;8313;49.894;8.084;2024-02-15T00:25:08;8.60;;;5.27;;
16407;SDS011;8313;49.894;8.084;2024-02-15T00:27:35;9.93;;;5.80;;
16407;SDS011;8313;49.894;8.084;2024-02-15T00:30:01;8.93;;;5.23;;
16407;SDS011;8313;49.894;8.084;2024-02-15T00:32:28;6.70;;;5.40;;
16407;SDS011;8313;49.894;8.084;2024-02-15T00:34:54;6.17;;;5.20;;
16407;SDS011;8313;49.894;8.084;2024-02-15T00:37:20;7.80;;;5.97;;
16407;SDS011;8313;49.894;8.084;2024-02-15T00:39:46;6.20;;;4.70;;
16407;SDS011;8313;49.894;8.084;2024-02-15T00:42:11;5.97;;;4.90;;
16407;SDS011;8313;49.894;8.084;2024-02-15T00:44:38;6.40;;;5.33;;
16407;SDS011;8313;49.894;8.084;2024-02-15T00:47:04;8.23;;;5.30;;
16407;SDS011;8313;49.894;8.084;2024-02-15T00:49:30;7.03;;;4.50;;
16407;SDS011;8313;49.894;8.084;2024-02-15T00:51:57;7.20;;;5.00;;
16407;SDS011;8313;49.894;8.084;2024-02-15T00:54:22;5.70;;;4.83;;
16407;SDS011;8313;49.894;8.084;2024-02-15T00:56:48;6.77;;;4.30;;
16407;SDS011;8313;49.894;8.084;2024-02-15T00:59:14;6.97;;;5.00;;
16407;SDS011;8313;49.894;8.084;2024-02-15T01:01:39;6.13;;;5.27;;
16407;SDS011;8313;49.894;8.084;2024-02-15T01:04:05;7.00;;;4.60;;
16407;SDS011;8313;49.894;8.084;2024-02-15T01:06:31;5.97;;;4.67;;
16407;SDS011;8313;49.894;8.084;2024-02-15T01:08:57;4.67;;;4.17;;
16407;SDS011;8313;49.894;8.084;2024-02-15T01:11:26;7.57;;;5.13;;
16407;SDS011;8313;49.894;8.084;2024-02-15T01:13:53;6.33;;;4.10;;
16407;SDS011;8313;49.894;8.084;2024-02-15T01:16:19;7.40;;;5.00;;
16407;SDS011;8313;49.894;8.084;2024-02-15T01:18:46;6.00;;;5.13;;
16407;SDS011;8313;49.894;8.084;2024-02-15T01:21:12;9.23;;;5.20;;
16407;SDS011;8313;49.894;8.084;2024-02-15T01:23:38;5.90;;;4.83;;
16407;SDS011;8313;49.894;8.084;2024-02-15T01:26:04;9.07;;;5.13;;
16407;SDS011;8313;49.894;8.084;2024-02-15T01:28:30;14.17;;;4.87;;
16407;SDS011;8313;49.894;8.084;2024-02-15T01:30:56;8.10;;;5.17;;
16407;SDS011;8313;49.894;8.084;2024-02-15T01:33:21;6.23;;;4.80;;
16407;SDS011;8313;49.894;8.084;2024-02-15T01:35:47;7.83;;;5.43;;
16407;SDS011;8313;49.894;8.084;2024-02-15T01:38:13;7.57;;;5.43;;
16407;SDS011;8313;49.894;8.084;2024-02-15T01:40:39;9.30;;;4.90;;
16407;SDS011;8313;49.894;8.084;2024-02-15T01:43:05;5.40;;;4.87;;
16407;SDS011;8313;49.894;8.084;2024-02-15T01:45:31;5.50;;;4.80;;
16407;SDS011;8313;49.894;8.084;2024-02-15T01:47:57;10.13;;;5.13;;
16407;SDS011;8313;49.894;8.084;2024-02-15T01:50:23;6.03;;;4.77;;
16407;SDS011;8313;49.894;8.084;2024-02-15T01:52:52;9.50;;;5.23;;
16407;SDS011;8313;49.894;8.084;2024-02-15T01:55:19;9.53;;;4.87;;
16407;SDS011;8313;49.894;8.084;2024-02-15T01:57:46;10.53;;;5.60;;
16407;SDS011;8313;49.894;8.084;2024-02-15T02:00:15;6.17;;;5.57;;
16407;SDS011;8313;49.894;8.084;2024-02-15T02:02:43;6.90;;;5.17;;
16407;SDS011;8313;49.894;8.084;2024-02-15T02:05:10;7.33;;;5.67;;
16407;SDS011;8313;49.894;8.084;2024-02-15T02:07:36;13.60;;;5.67;;
16407;SDS011;8313;49.894;8.084;2024-02-15T02:10:02;7.20;;;5.90;;
16407;SDS011;8313;49.894;8.084;2024-02-15T02:12:29;5.47;;;4.40;;
16407;SDS011;8313;49.894;8.084;2024-02-15T02:14:56;6.20;;;4.77;;
16407;SDS011;8313;49.894;8.084;2024-02-15T02:17:22;7.60;;;5.50;;
16407;SDS011;8313;49.894;8.084;2024-02-15T02:19:47;11.40;;;5.30;;
16407;SDS011;8313;49.894;8.084;2024-02-15T02:22:15;5.93;;;5.03;;
16407;SDS011;8313;49.894;8.084;2024-02-15T02:27:38;5.90;;;5.30;;
16407;SDS011;8313;49.894;8.084;2024-02-15T02:30:14;6.03;;;5.27;;
16407;SDS011;8313;49.894;8.084;2024-02-15T02:32:42;6.97;;;6.23;;
16407;SDS011;8313;49.894;8.084;2024-02-15T02:35:08;8.17;;;5.97;;
16407;SDS011;8313;49.894;8.084;2024-02-15T02:37:37;11.30;;;6.57;;
16407;SDS011;8313;49.894;8.084;2024-02-15T02:40:04;6.03;;;4.70;;
16407;SDS011;8313;49.894;8.084;2024-02-15T02:42:33;8.07;;;6.00;;
16407;SDS011;8313;49.894;8.084;2024-02-15T02:45:11;9.00;;;5.20;;
16407;SDS011;8313;49.894;8.084;2024-02-15T02:47:37;6.23;;;5.60;;
16407;SDS011;8313;49.894;8.084;2024-02-15T02:50:02;8.60;;;5.43;;
16407;SDS011;8313;49.894;8.084;2024-02-15T02:52:28;6.30;;;5.27;;
16407;SDS011;8313;49.894;8.084;2024-02-15T02:54:54;6.07;;;4.80;;
16407;SDS011;8313;49.894;8.084;2024-02-15T02:57:19;6.57;;;5.07;;
16407;SDS011;8313;49.894;8.084;2024-02-15T02:59:45;6.40;;;5.50;;
16407;SDS011;8313;49.894;8.084;2024-02-15T03:02:12;8.63;;;5.27;;
16407;SDS011;8313;49.894;8.084;2024-02-15T03:04:38;6.20;;;5.17;;
16407;SDS011;8313;49.894;8.084;2024-02-15T03:07:05;6.67;;;5.30;;
16407;SDS011;8313;49.894;8.084;2024-02-15T03:09:30;8.53;;;5.43;;
16407;SDS011;8313;49.894;8.084;2024-02-15T03:11:56;6.30;;;5.17;;
16407;SDS011;8313;49.894;8.084;2024-02-15T03:14:22;5.67;;;4.90;;
16407;SDS011;8313;49.894;8.084;2024-02-15T03:16:48;5.23;;;4.40;;
16407;SDS011;8313;49.894;8.084;2024-02-15T03:19:13;5.90;;;5.37;;
16407;SDS011;8313;49.894;8.084;2024-02-15T03:21:39;6.83;;;5.40;;
16407;SDS011;8313;49.894;8.084;2024-02-15T03:24:06;4.67;;;4.17;;
16407;SDS011;8313;49.894;8.084;2024-02-15T03:26:32;6.00;;;4.60;;
16407;SDS011;8313;49.894;8.084;2024-02-15T03:29:02;6.87;;;5.50;;
16407;SDS011;8313;49.894;8.084;2024-02-15T03:31:28;5.60;;;5.10;;
16407;SDS011;8313;49.894;8.084;2024-02-15T03:33:56;5.90;;;5.07;;
16407;SDS011;8313;49.894;8.084;2024-02-15T03:36:22;6.13;;;4.83;;
16407;SDS011;8313;49.894;8.084;2024-02-15T03:38:48;9.90;;;5.70;;
16407;SDS011;8313;49.894;8.084;2024-02-15T03:41:14;6.47;;;5.87;;
16407;SDS011;8313;49.894;8.084;2024-02-15T03:43:39;7.03;;;5.60;;
16407;SDS011;8313;49.894;8.084;2024-02-15T03:46:05;7.20;;;5.50;;
16407;SDS011;8313;49.894;8.084;2024-02-15T03:48:33;10.17;;;6.60;;
16407;SDS011;8313;49.894;8.084;2024-02-15T03:50:59;7.73;;;5.83;;
16407;SDS011;8313;49.894;8.084;2024-02-15T03:53:26;8.00;;;5.57;;
16407;SDS011;8313;49.894;8.084;2024-02-15T03:55:55;8.37;;;6.00;;
16407;SDS011;8313;49.894;8.084;2024-02-15T03:58:21;5.27;;;4.67;;
16407;SDS011;8313;49.894;8.084;2024-02-15T04:00:47;10.40;;;5.97;;
16407;SDS011;8313;49.894;8.084;2024-02-15T04:03:12;6.40;;;4.67;;
16407;SDS011;8313;49.894;8.084;2024-02-15T04:05:38;6.73;;;4.77;;
16407;SDS011;8313;49.894;8.084;2024-02-15T04:08:04;5.07;;;4.43;;
16407;SDS011;8313;49.894;8.084;2024-02-15T04:10:30;9.30;;;5.07;;
16407;SDS011;8313;49.894;8.084;2024-02-15T04:12:56;5.63;;;4.83;;
16407;SDS011;8313;49.894;8.084;2024-02-15T04:15:23;6.73;;;4.93;;
16407;SDS011;8313;49.894;8.084;2024-02-15T04:17:49;5.27;;;4.77;;
16407;SDS011;8313;49.894;8.084;2024-02-15T04:20:21;6.80;;;4.90;;
16407;SDS011;8313;49.894;8.084;2024-02-15T04:22:47;6.93;;;5.10;;
16407;SDS011;8313;49.894;8.084;2024-02-15T04:25:15;7.80;;;5.30;;
16407;SDS011;8313;49.894;8.084;2024-02-15T04:27:45;8.00;;;5.53;;
16407;SDS011;8313;49.894;8.084;2024-02-15T04:30:12;7.43;;;5.03;;
16407;SDS011;8313;49.894;8.084;2024-02-15T04:32:37;5.70;;;4.93;;
16407;SDS011;8313;49.894;8.084;2024-02-15T04:35:03;7.03;;;5.33;;
16407;SDS011;8313;49.894;8.084;2024-02-15T04:37:30;8.20;;;5.20;;
16407;SDS011;8313;49.894;8.084;2024-02-15T04:39:57;9.63;;;5.87;;
16407;SDS011;8313;49.894;8.084;2024-02-15T04:42:23;5.20;;;4.70;;
16407;SDS011;8313;49.894;8.084;2024-02-15T04:44:52;9.57;;;5.40;;
16407;SDS011;8313;49.894;8.084;2024-02-15T04:47:19;8.83;;;6.33;;
16407;SDS011;8313;49.894;8.084;2024-02-15T04:49:45;12.40;;;6.60;;
16407;SDS011;8313;49.894;8.084;2024-02-15T04:52:11;7.20;;;6.37;;
16407;SDS011;8313;49.894;8.084;2024-02-15T04:54:36;10.27;;;6.70;;
16407;SDS011;8313;49.894;8.084;2024-02-15T04:57:03;13.33;;;6.70;;
16407;SDS011;8313;49.894;8.084;2024-02-15T04:59:28;8.57;;;6.17;;
16407;SDS011;8313;49.894;8.084;2024-02-15T05:01:54;9.03;;;6.07;;
16407;SDS011;8313;49.894;8.084;2024-02-15T05:04:21;6.73;;;6.00;;
16407;SDS011;8313;49.894;8.084;2024-02-15T05:06:47;9.87;;;6.00;;
16407;SDS011;8313;49.894;8.084;2024-02-15T05:09:13;6.07;;;5.50;;
16407;SDS011;8313;49.894;8.084;2024-02-15T05:11:42;8.60;;;6.17;;
16407;SDS011;8313;49.894;8.084;2024-02-15T05:14:15;7.80;;;4.97;;
16407;SDS011;8313;49.894;8.084;2024-02-15T05:16:48;7.93;;;5.77;;
16407;SDS011;8313;49.894;8.084;2024-02-15T05:19:17;10.40;;;6.90;;
16407;SDS011;8313;49.894;8.084;2024-02-15T05:21:44;10.90;;;7.70;;
16407;SDS011;8313;49.894;8.084;2024-02-15T05:24:13;9.50;;;7.07;;
16407;SDS011;8313;49.894;8.084;2024-02-15T05:26:40;9.37;;;7.10;;
16407;SDS011;8313;49.894;8.084;2024-02-15T05:29:12;9.90;;;7.67;;
16407;SDS011;8313;49.894;8.084;2024-02-15T05:31:38;9.97;;;7.40;;
16407;SDS011;8313;49.894;8.084;2024-02-15T05:34:05;12.73;;;7.13;;
16407;SDS011;8313;49.894;8.084;2024-02-15T05:36:37;11.00;;;5.77;;
16407;SDS011;8313;49.894;8.084;2024-02-15T05:39:03;6.90;;;5.50;;
16407;SDS011;8313;49.894;8.084;2024-02-15T05:41:30;9.80;;;7.27;;
16407;SDS011;8313;49.894;8.084;2024-02-15T05:43:59;10.53;;;7.13;;
16407;SDS011;8313;49.894;8.084;2024-02-15T05:46:25;13.63;;;8.37;;
16407;SDS011;8313;49.894;8.084;2024-02-15T05:48:53;10.93;;;7.67;;
16407;SDS011;8313;49.894;8.084;2024-02-15T05:51:18;11.80;;;7.10;;
16407;SDS011;8313;49.894;8.084;2024-02-15T05:53:44;8.87;;;7.33;;
16407;SDS011;8313;49.894;8.084;2024-02-15T05:56:10;10.10;;;6.90;;
16407;SDS011;8313;49.894;8.084;2024-02-15T05:58:37;9.37;;;7.90;;
16407;SDS011;8313;49.894;8.084;2024-02-15T06:01:04;10.37;;;7.27;;
16407;SDS011;8313;49.894;8.084;2024-02-15T06:03:32;11.73;;;7.30;;
16407;SDS011;8313;49.894;8.084;2024-02-15T06:05:59;14.63;;;9.20;;
16407;SDS011;8313;49.894;8.084;2024-02-15T06:08:30;9.47;;;7.70;;
16407;SDS011;8313;49.894;8.084;2024-02-15T06:10:56;14.13;;;9.27;;
16407;SDS011;8313;49.894;8.084;2024-02-15T06:13:22;12.30;;;7.93;;
16407;SDS011;8313;49.894;8.084;2024-02-15T06:15:48;9.83;;;7.63;;
16407;SDS011;8313;49.894;8.084;2024-02-15T06:18:24;12.83;;;8.37;;
16407;SDS011;8313;49.894;8.084;2024-02-15T06:20:54;10.87;;;8.83;;
16407;SDS011;8313;49.894;8.084;2024-02-15T06:23:24;10.10;;;7.50;;
16407;SDS011;8313;49.894;8.084;2024-02-15T06:25:52;8.90;;;6.80;;
16407;SDS011;8313;49.894;8.084;2024-02-15T06:28:22;11.47;;;7.37;;
16407;SDS011;8313;49.894;8.084;2024-02-15T06:31:10;10.90;;;7.80;;
16407;SDS011;8313;49.894;8.084;2024-02-15T06:33:55;7.10;;;5.80;;
16407;SDS011;8313;49.894;8.084;2024-02-15T06:36:40;9.50;;;6.80;;
16407;SDS011;8313;49.894;8.084;2024-02-15T06:39:36;8.87;;;6.13;;
16407;SDS011;8313;49.894;8.084;2024-02-15T06:42:20;7.83;;;6.20;;
16407;SDS011;8313;49.894;8.084;2024-02-15T06:44:46;7.40;;;5.70;;
16407;SDS011;8313;49.894;8.084;2024-02-15T06:47:12;9.23;;;6.50;;
16407;SDS011;8313;49.894;8.084;2024-02-15T06:49:40;9.43;;;6.63;;
16407;SDS011;8313;49.894;8.084;2024-02-15T06:52:10;6.90;;;6.20;;
16407;SDS011;8313;49.894;8.084;2024-02-15T06:54:37;10.90;;;6.90;;
16407;SDS011;8313;49.894;8.084;2024-02-15T06:57:07;7.33;;;6.17;;
16407;SDS011;8313;49.894;8.084;2024-02-15T06:59:33;9.30;;;6.40;;
16407;SDS011;8313;49.894;8.084;2024-02-15T07:01:59;10.60;;;7.00;;
16407;SDS011;8313;49.894;8.084;2024-02-15T07:04:26;8.20;;;6.30;;
16407;SDS011;8313;49.894;8.084;2024-02-15T07:06:52;6.70;;;5.37;;
16407;SDS011;8313;49.894;8.084;2024-02-15T07:09:19;9.30;;;6.20;;
16407;SDS011;8313;49.894;8.084;2024-02-15T07:11:46;11.13;;;6.90;;
16407;SDS011;8313;49.894;8.084;2024-02-15T07:14:13;7.03;;;5.93;;
16407;SDS011;8313;49.894;8.084;2024-02-15T07:16:39;12.93;;;7.50;;
16407;SDS011;8313;49.894;8.084;2024-02-15T07:19:05;8.60;;;6.40;;
16407;SDS011;8313;49.894;8.084;2024-02-15T07:21:31;7.90;;;6.83;;
16407;SDS011;8313;49.894;8.084;2024-02-15T07:23:57;8.07;;;6.23;;
16407;SDS011;8313;49.894;8.084;2024-02-15T07:26:24;8.93;;;5.53;;
16407;SDS011;8313;49.894;8.084;2024-02-15T07:28:53;9.27;;;6.20;;
16407;SDS011;8313;49.894;8.084;2024-02-15T07:31:20;12.63;;;6.40;;
16407;SDS011;8313;49.894;8.084;2024-02-15T07:33:50;7.70;;;5.73;;
16407;SDS011;8313;49.894;8.084;2024-02-15T07:36:19;7.90;;;6.00;;
16407;SDS011;8313;49.894;8.084;2024-02-15T07:38:46;7.77;;;4.70;;
16407;SDS011;8313;49.894;8.084;2024-02-15T07:41:17;6.10;;;4.40;;
16407;SDS011;8313;49.894;8.084;2024-02-15T07:43:47;6.00;;;4.80;;
16407;SDS011;8313;49.894;8.084;2024-02-15T07:46:13;6.20;;;4.20;;
16407;SDS011;8313;49.894;8.084;2024-02-15T07:48:41;5.03;;;3.97;;
16407;SDS011;8313;49.894;8.084;2024-02-15T07:51:17;8.20;;;4.70;;
16407;SDS011;8313;49.894;8.084;2024-02-15T07:53:44;7.53;;;4.77;;
16407;SDS011;8313;49.894;8.084;2024-02-15T07:56:11;14.67;;;4.63;;
16407;SDS011;8313;49.894;8.084;2024-02-15T07:58:39;5.30;;;4.47;;
16407;SDS011;8313;49.894;8.084;2024-02-15T08:01:06;6.10;;;4.87;;
16407;SDS011;8313;49.894;8.084;2024-02-15T08:03:34;8.27;;;5.47;;
16407;SDS011;8313;49.894;8.084;2024-02-15T08:06:01;5.30;;;4.10;;
16407;SDS011;8313;49.894;8.084;2024-02-15T08:08:31;8.93;;;5.07;;
16407;SDS011;8313;49.894;8.084;2024-02-15T08:10:59;8.70;;;4.60;;
16407;SDS011;8313;49.894;8.084;2024-02-15T08:13:27;7.23;;;5.30;;
16407;SDS011;8313;49.894;8.084;2024-02-15T08:15:54;8.93;;;6.20;;
16407;SDS011;8313;49.894;8.084;2024-02-15T08:18:21;10.83;;;7.27;;
16407;SDS011;8313;49.894;8.084;2024-02-15T08:20:47;7.60;;;6.60;;
16407;SDS011;8313;49.894;8.084;2024-02-15T08:23:12;11.90;;;8.23;;
16407;SDS011;8313;49.894;8.084;2024-02-15T08:25:38;7.73;;;5.77;;
16407;SDS011;8313;49.894;8.084;2024-02-15T08:28:07;11.83;;;6.90;;
16407;SDS011;8313;49.894;8.084;2024-02-15T08:30:33;11.03;;;8.27;;
16407;SDS011;8313;49.894;8.084;2024-02-15T08:32:58;12.10;;;8.57;;
16407;SDS011;8313;49.894;8.084;2024-02-15T08:35:24;10.03;;;7.33;;
16407;SDS011;8313;49.894;8.084;2024-02-15T08:37:50;11.20;;;8.00;;
16407;SDS011;8313;49.894;8.084;2024-02-15T08:40:17;10.27;;;7.63;;
16407;SDS011;8313;49.894;8.084;2024-02-15T08:42:49;12.67;;;9.30;;
16407;SDS011;8313;49.894;8.084;2024-02-15T08:45:15;13.77;;;8.80;;
16407;SDS011;8313;49.894;8.084;2024-02-15T08:47:41;11.80;;;8.47;;
16407;SDS011;8313;49.894;8.084;2024-02-15T08:50:08;10.27;;;9.00;;
16407;SDS011;8313;49.894;8.084;2024-02-15T08:52:38;11.40;;;8.30;;
16407;SDS011;8313;49.894;8.084;2024-02-15T08:55:05;11.17;;;8.70;;
16407;SDS011;8313;49.894;8.084;2024-02-15T08:57:34;10.40;;;9.10;;
16407;SDS011;8313;49.894;8.084;2024-02-15T09:00:04;10.67;;;8.87;;
16407;SDS011;8313;49.894;8.084;2024-02-15T09:02:38;9.80;;;7.80;;
16407;SDS011;8313;49.894;8.084;2024-02-15T09:05:05;17.83;;;9.77;;
16407;SDS011;8313;49.894;8.084;2024-02-15T09:07:31;14.50;;;9.10;;
16407;SDS011;8313;49.894;8.084;2024-02-15T09:09:57;20.10;;;10.03;;
16407;SDS011;8313;49.894;8.084;2024-02-15T09:12:23;13.80;;;10.07;;
16407;SDS011;8313;49.894;8.084;2024-02-15T09:14:50;14.97;;;9.20;;
16407;SDS011;8313;49.894;8.084;2024-02-15T09:17:15;17.77;;;9.13;;
16407;SDS011;8313;49.894;8.084;2024-02-15T09:19:41;10.23;;;7.57;;
16407;SDS011;8313;49.894;8.084;2024-02-15T09:22:07;9.50;;;6.27;;
16407;SDS011;8313;49.894;8.084;2024-02-15T09:24:32;9.57;;;6.27;;
16407;SDS011;8313;49.894;8.084;2024-02-15T09:27:01;6.90;;;5.70;;
16407;SDS011;8313;49.894;8.084;2024-02-15T09:29:28;9.27;;;5.90;;
16407;SDS011;8313;49.894;8.084;2024-02-15T09:31:59;7.47;;;4.70;;
16407;SDS011;8313;49.894;8.084;2024-02-15T09:34:27;7.83;;;5.10;;
16407;SDS011;8313;49.894;8.084;2024-02-15T09:36:53;7.13;;;5.27;;
16407;SDS011;8313;49.894;8.084;2024-02-15T09:39:18;8.57;;;5.33;;
16407;SDS011;8313;49.894;8.084;2024-02-15T09:41:44;6.60;;;4.80;;
16407;SDS011;8313;49.894;8.084;2024-02-15T09:44:10;6.43;;;4.40;;
16407;SDS011;8313;49.894;8.084;2024-02-15T09:46:42;6.03;;;4.40;;
16407;SDS011;8313;49.894;8.084;2024-02-15T09:49:11;4.77;;;4.10;;
16407;SDS011;8313;49.894;8.084;2024-02-15T09:51:39;6.93;;;4.43;;
16407;SDS011;8313;49.894;8.084;2024-02-15T09:54:05;5.47;;;4.53;;
16407;SDS011;8313;49.894;8.084;2024-02-15T09:56:34;7.10;;;4.30;;
16407;SDS011;8313;49.894;8.084;2024-02-15T09:59:00;6.10;;;4.60;;
16407;SDS011;8313;49.894;8.084;2024-02-15T10:01:27;5.87;;;4.63;;
16407;SDS011;8313;49.894;8.084;2024-02-15T10:03:55;5.33;;;4.47;;
16407;SDS011;8313;49.894;8.084;2024-02-15T10:06:24;6.37;;;5.13;;
16407;SDS011;8313;49.894;8.084;2024-02-15T10:08:50;6.63;;;4.57;;
16407;SDS011;8313;49.894;8.084;2024-02-15T10:11:15;5.57;;;4.37;;
16407;SDS011;8313;49.894;8.084;2024-02-15T10:13:41;7.63;;;5.23;;
16407;SDS011;8313;49.894;8.084;2024-02-15T10:16:16;19.20;;;11.07;;
16407;SDS011;8313;49.894;8.084;2024-02-15T10:18:50;19.80;;;13.03;;
16407;SDS011;8313;49.894;8.084;2024-02-15T10:21:28;17.53;;;12.20;;
16407;SDS011;8313;49.894;8.084;2024-02-15T10:26:31;13.30;;;11.03;;
16407;SDS011;8313;49.894;8.084;2024-02-15T10:29:10;16.70;;;11.60;;
16407;SDS011;8313;49.894;8.084;2024-02-15T10:31:39;14.57;;;11.30;;
16407;SDS011;8313;49.894;8.084;2024-02-15T10:34:17;10.27;;;8.07;;
16407;SDS011;8313;49.894;8.084;2024-02-15T10:36:44;10.90;;;7.80;;
16407;SDS011;8313;49.894;8.084;2024-02-15T10:39:13;12.20;;;9.10;;
16407;SDS011;8313;49.894;8.084;2024-02-15T10:41:51;14.30;;;10.40;;
16407;SDS011;8313;49.894;8.084;2024-02-15T10:44:20;9.47;;;8.20;;
16407;SDS011;8313;49.894;8.084;2024-02-15T10:46:48;8.30;;;7.27;;
16407;SDS011;8313;49.894;8.084;2024-02-15T10:49:18;10.93;;;8.13;;
16407;SDS011;8313;49.894;8.084;2024-02-15T10:51:47;10.50;;;8.00;;
16407;SDS011;8313;49.894;8.084;2024-02-15T10:54:19;12.97;;;9.10;;
16407;SDS011;8313;49.894;8.084;2024-02-15T10:56:59;11.47;;;9.83;;
16407;SDS011;8313;49.894;8.084;2024-02-15T10:59:31;9.60;;;8.13;;
16407;SDS011;8313;49.894;8.084;2024-02-15T11:04:52;13.77;;;9.17;;
16407;SDS011;8313;49.894;8.084;2024-02-15T11:07:25;9.40;;;7.80;;
16407;SDS011;8313;49.894;8.084;2024-02-15T11:09:54;9.60;;;7.20;;
16407;SDS011;8313;49.894;8.084;2024-02-15T11:12:21;12.13;;;7.47;;
16407;SDS011;8313;49.894;8.084;2024-02-15T11:14:48;7.23;;;6.33;;
16407;SDS011;8313;49.894;8.084;2024-02-15T11:17:58;8.70;;;6.77;;
16407;SDS011;8313;49.894;8.084;2024-02-15T11:20:08;7.03;;;5.93;;
16407;SDS011;8313;49.894;8.084;2024-02-15T11:22:36;6.23;;;5.40;;
16407;SDS011;8313;49.894;8.084;2024-02-15T11:25:03;6.20;;;4.97;;
16407;SDS011;8313;49.894;8.084;2024-02-15T11:27:37;6.00;;;5.40;;
16407;SDS011;8313;49.894;8.084;2024-02-15T11:30:04;6.57;;;5.60;;
16407;SDS011;8313;49.894;8.084;2024-02-15T11:32:43;8.20;;;6.20;;
16407;SDS011;8313;49.894;8.084;2024-02-15T11:37:49;7.30;;;5.87;;
16407;SDS011;8313;49.894;8.084;2024-02-15T11:40:15;8.50;;;6.90;;
16407;SDS011;8313;49.894;8.084;2024-02-15T11:42:42;6.00;;;5.40;;
16407;SDS011;8313;49.894;8.084;2024-02-15T11:45:08;7.40;;;6.60;;
16407;SDS011;8313;49.894;8.084;2024-02-15T11:47:36;8.07;;;5.67;;
16407;SDS011;8313;49.894;8.084;2024-02-15T11:50:05;8.47;;;6.30;;
16407;SDS011;8313;49.894;8.084;2024-02-15T11:52:33;9.93;;;5.97;;
16407;SDS011;8313;49.894;8.084;2024-02-15T11:55:05;6.20;;;5.00;;
16407;SDS011;8313;49.894;8.084;2024-02-15T11:57:35;6.70;;;5.50;;
16407;SDS011;8313;49.894;8.084;2024-02-15T12:00:18;10.07;;;5.10;;
16407;SDS011;8313;49.894;8.084;2024-02-15T12:03:06;4.70;;;3.63;;
16407;SDS011;8313;49.894;8.084;2024-02-15T12:05:51;7.37;;;4.80;;
16407;SDS011;8313;49.894;8.084;2024-02-15T12:08:36;6.73;;;4.63;;
16407;SDS011;8313;49.894;8.084;2024-02-15T12:11:21;5.63;;;4.43;;
16407;SDS011;8313;49.894;8.084;2024-02-15T12:14:05;8.80;;;4.47;;
16407;SDS011;8313;49.894;8.084;2024-02-15T12:16:59;8.53;;;5.70;;
16407;SDS011;8313;49.894;8.084;2024-02-15T12:19:51;10.63;;;7.10;;
16407;SDS011;8313;49.894;8.084;2024-02-15T12:24:59;7.37;;;6.10;;
16407;SDS011;8313;49.894;8.084;2024-02-15T12:27:37;7.10;;;5.37;;
16407;SDS011;8313;49.894;8.084;2024-02-15T12:30:04;5.47;;;4.97;;
16407;SDS011;8313;49.894;8.084;2024-02-15T12:32:32;6.17;;;5.27;;
16407;SDS011;8313;49.894;8.084;2024-02-15T12:35:16;8.10;;;5.20;;
16407;SDS011;8313;49.894;8.084;2024-02-15T12:37:45;8.10;;;5.60;;
16407;SDS011;8313;49.894;8.084;2024-02-15T12:40:11;9.47;;;6.03;;
16407;SDS011;8313;49.894;8.084;2024-02-15T12:42:44;8.63;;;5.30;;
16407;SDS011;8313;49.894;8.084;2024-02-15T12:45:18;6.90;;;5.27;;
16407;SDS011;8313;49.894;8.084;2024-02-15T12:47:51;7.33;;;5.00;;
16407;SDS011;8313;49.894;8.084;2024-02-15T12:50:22;5.93;;;4.10;;
16407;SDS011;8313;49.894;8.084;2024-02-15T12:52:49;6.67;;;5.40;;
16407;SDS011;8313;49.894;8.084;2024-02-15T12:55:19;10.33;;;5.00;;
16407;SDS011;8313;49.894;8.084;2024-02-15T12:57:52;9.50;;;5.30;;
16407;SDS011;8313;49.894;8.084;2024-02-15T13:00:22;5.83;;;4.17;;
16407;SDS011;8313;49.894;8.084;2024-02-15T13:02:56;5.27;;;4.10;;
16407;SDS011;8313;49.894;8.084;2024-02-15T13:05:24;10.10;;;3.90;;
16407;SDS011;8313;49.894;8.084;2024-02-15T13:07:51;4.20;;;3.40;;
16407;SDS011;8313;49.894;8.084;2024-02-15T13:10:20;3.50;;;3.20;;
16407;SDS011;8313;49.894;8.084;2024-02-15T13:12:47;3.37;;;2.70;;
16407;SDS011;8313;49.894;8.084;2024-02-15T13:15:13;5.37;;;3.10;;
16407;SDS011;8313;49.894;8.084;2024-02-15T13:17:43;2.97;;;2.60;;
16407;SDS011;8313;49.894;8.084;2024-02-15T13:20:11;7.03;;;2.20;;
16407;SDS011;8313;49.894;8.084;2024-02-15T13:22:39;4.87;;;2.40;;
16407;SDS011;8313;49.894;8.084;2024-02-15T13:25:06;3.37;;;2.03;;
16407;SDS011;8313;49.894;8.084;2024-02-15T13:27:33;2.30;;;2.10;;
16407;SDS011;8313;49.894;8.084;2024-02-15T13:30:00;1.60;;;1.50;;
16407;SDS011;8313;49.894;8.084;2024-02-15T13:32:25;1.70;;;1.20;;
16407;SDS011;8313;49.894;8.084;2024-02-15T13:34:51;3.60;;;1.50;;
16407;SDS011;8313;49.894;8.084;2024-02-15T13:37:20;1.73;;;1.50;;
16407;SDS011;8313;49.894;8.084;2024-02-15T13:39:48;1.90;;;1.80;;
16407;SDS011;8313;49.894;8.084;2024-02-15T13:42:15;2.67;;;2.10;;
16407;SDS011;8313;49.894;8.084;2024-02-15T13:44:44;2.10;;;1.47;;
16407;SDS011;8313;49.894;8.084;2024-02-15T13:47:11;1.27;;;1.20;;
16407;SDS011;8313;49.894;8.084;2024-02-15T13:49:37;1.83;;;1.73;;
16407;SDS011;8313;49.894;8.084;2024-02-15T13:52:04;1.30;;;1.27;;
16407;SDS011;8313;49.894;8.084;2024-02-15T13:54:31;2.50;;;1.80;;
16407;SDS011;8313;49.894;8.084;2024-02-15T13:56:57;2.40;;;1.90;;
16407;SDS011;8313;49.894;8.084;2024-02-15T13:59:25;4.43;;;1.30;;
16407;SDS011;8313;49.894;8.084;2024-02-15T14:01:52;1.60;;;1.30;;
16407;SDS011;8313;49.894;8.084;2024-02-15T14:04:18;1.87;;;1.40;;
16407;SDS011;8313;49.894;8.084;2024-02-15T14:06:45;2.43;;;1.50;;
16407;SDS011;8313;49.894;8.084;2024-02-15T14:09:10;4.17;;;2.00;;
16407;SDS011;8313;49.894;8.084;2024-02-15T14:11:38;1.70;;;1.60;;
16407;SDS011;8313;49.894;8.084;2024-02-15T14:14:04;2.30;;;1.43;;
16407;SDS011;8313;49.894;8.084;2024-02-15T14:16:30;5.00;;;2.10;;
16407;SDS011;8313;49.894;8.084;2024-02-15T14:18:56;3.07;;;2.00;;
16407;SDS011;8313;49.894;8.084;2024-02-15T14:21:22;2.13;;;1.80;;
16407;SDS011;8313;49.894;8.084;2024-02-15T14:23:48;1.67;;;1.57;;
16407;SDS011;8313;49.894;8.084;2024-02-15T14:26:14;1.97;;;1.77;;
16407;SDS011;8313;49.894;8.084;2024-02-15T14:28:42;2.97;;;1.70;;
16407;SDS011;8313;49.894;8.084;2024-02-15T14:31:10;1.50;;;1.40;;
16407;SDS011;8313;49.894;8.084;2024-02-15T14:33:54;3.93;;;1.90;;
16407;SDS011;8313;49.894;8.084;2024-02-15T14:36:20;5.50;;;2.23;;
16407;SDS011;8313;49.894;8.084;2024-02-15T14:38:46;3.77;;;2.13;;
16407;SDS011;8313;49.894;8.084;2024-02-15T14:41:12;5.63;;;2.00;;
16407;SDS011;8313;49.894;8.084;2024-02-15T14:43:38;2.70;;;2.03;;
16407;SDS011;8313;49.894;8.084;2024-02-15T14:46:04;3.80;;;1.60;;
16407;SDS011;8313;49.894;8.084;2024-02-15T14:48:35;3.70;;;2.03;;
16407;SDS011;8313;49.894;8.084;2024-02-15T14:51:01;2.20;;;1.70;;
16407;SDS011;8313;49.894;8.084;2024-02-15T14:53:27;6.13;;;1.80;;
16407;SDS011;8313;49.894;8.084;2024-02-15T14:55:53;4.10;;;2.47;;
16407;SDS011;8313;49.894;8.084;2024-02-15T14:58:22;3.90;;;3.50;;
16407;SDS011;8313;49.894;8.084;2024-02-15T15:00:48;6.27;;;4.97;;
16407;SDS011;8313;49.894;8.084;2024-02-15T15:03:14;8.80;;;7.07;;
16407;SDS011;8313;49.894;8.084;2024-02-15T15:05:43;8.27;;;7.30;;
16407;SDS011;8313;49.894;8.084;2024-02-15T15:08:28;7.30;;;6.40;;
16407;SDS011;8313;49.894;8.084;2024-02-15T15:11:12;10.70;;;6.13;;
16407;SDS011;8313;49.894;8.084;2024-02-15T15:13:56;5.37;;;4.87;;
16407;SDS011;8313;49.894;8.084;2024-02-15T15:16:23;4.93;;;4.50;;
16407;SDS011;8313;49.894;8.084;2024-02-15T15:18:50;4.50;;;4.00;;